Time;durP1;ratioP1;P1;durP2;ratioP2;P2;SDS_P1;SDS_P2;PMS_P1;PMS_P2;Temp;Humidity;BMP_temperature;BMP_pressure;BME280_temperature;BME280_humidity;BME280_pressure;Samples;Min_cycle;Max_cycle;Signal;HPM_P1;HPM_P2
2024/03/03 00:03:32;;;;;;;;;;;;;;;20.58;40.58;94115.69;10515333;28;2099;-71
2024/03/03 00:08:33;;;;;;;;;;;;;;;20.56;40.14;94121.25;10505729;28;2057;-69
2024/03/03 00:13:33;;;;;;;;;;;;;;;20.54;40.68;94120.78;10510769;28;2070;-69
2024/03/03 00:18:37;;;;;;;;;;;;;;;20.53;40.82;94121.88;10513127;28;1988;-70
2024/03/03 00:23:37;;;;;;;;;;;;;;;20.50;40.37;94117.25;10514947;28;2000;-69
2024/03/03 00:28:38;;;;;;;;;;;;;;;20.48;40.82;94108.88;10511131;28;1935;-69
2024/03/03 00:33:38;;;;;;;;;;;;;;;20.47;40.46;94102.06;10506778;28;2569;-70
2024/03/03 00:38:38;;;;;;;;;;;;;;;20.46;40.55;94103.16;10505344;28;2069;-70
2024/03/03 00:43:39;;;;;;;;;;;;;;;20.43;40.98;94093.25;10507298;28;1884;-71
2024/03/03 00:48:40;;;;;;;;;;;;;;;20.43;40.57;94090.63;10503330;28;2180;-68
2024/03/03 00:53:40;;;;;;;;;;;;;;;20.41;41.10;94079.63;10508039;28;1925;-69
2024/03/03 00:58:41;;;;;;;;;;;;;;;20.39;40.85;94087.06;10504826;28;2058;-70
2024/03/03 01:03:41;;;;;;;;;;;;;;;20.38;40.64;94071.59;10509680;28;2072;-70
2024/03/03 01:08:41;;;;;;;;;;;;;;;20.37;40.87;94070.03;10507463;28;2049;-70
2024/03/03 01:13:42;;;;;;;;;;;;;;;20.35;40.76;94057.19;10513261;28;2058;-73
2024/03/03 01:18:42;;;;;;;;;;;;;;;20.34;40.92;94057.50;10513004;28;2656;-71
2024/03/03 01:23:43;;;;;;;;;;;;;;;20.32;40.95;94049.16;10511416;28;2094;-70
2024/03/03 01:28:43;;;;;;;;;;;;;;;20.30;40.79;94044.19;10505201;28;2213;-70
2024/03/03 01:33:43;;;;;;;;;;;;;;;20.29;40.63;94037.38;10513246;28;1975;-70
2024/03/03 01:38:44;;;;;;;;;;;;;;;20.27;41.09;94032.44;10517841;28;1972;-71
2024/03/03 01:43:44;;;;;;;;;;;;;;;20.27;40.73;94039.56;10499917;28;2128;-70
2024/03/03 01:48:44;;;;;;;;;;;;;;;20.26;40.60;94043.25;10508557;28;1978;-70
2024/03/03 01:53:45;;;;;;;;;;;;;;;20.23;40.80;94031.53;10508851;28;2033;-70
2024/03/03 01:58:45;;;;;;;;;;;;;;;20.22;40.89;94024.69;10522135;28;2138;-71
2024/03/03 02:03:45;;;;;;;;;;;;;;;20.22;40.70;94021.28;10507135;28;2513;-70
2024/03/03 02:08:46;;;;;;;;;;;;;;;20.21;40.74;94014.50;10515447;28;2048;-70
2024/03/03 02:13:46;;;;;;;;;;;;;;;20.19;40.86;94006.13;10514691;28;1864;-69
2024/03/03 02:18:46;;;;;;;;;;;;;;;20.18;41.00;94009.81;10508262;28;1943;-71
2024/03/03 02:23:46;;;;;;;;;;;;;;;20.17;41.04;94009.03;10507260;28;1967;-70
2024/03/03 02:28:47;;;;;;;;;;;;;;;20.15;40.74;94003.31;10509310;28;2139;-69
2024/03/03 02:33:48;;;;;;;;;;;;;;;20.15;41.00;93989.41;10512808;28;2011;-69
2024/03/03 02:38:49;;;;;;;;;;;;;;;20.13;40.78;93991.59;10509873;28;1943;-69
2024/03/03 02:43:49;;;;;;;;;;;;;;;20.12;40.91;93984.75;10513058;28;2521;-70
2024/03/03 02:48:49;;;;;;;;;;;;;;;20.10;40.74;93986.94;10511685;28;2061;-69
2024/03/03 02:53:49;;;;;;;;;;;;;;;20.10;40.69;93981.66;10508946;28;2121;-69
2024/03/03 02:58:50;;;;;;;;;;;;;;;20.07;40.79;93988.31;10504900;28;2248;-68
2024/03/03 03:03:50;;;;;;;;;;;;;;;20.08;40.85;93989.09;10515468;28;2054;-69
2024/03/03 03:08:50;;;;;;;;;;;;;;;20.06;40.96;93983.38;10508719;28;1958;-69
2024/03/03 03:13:50;;;;;;;;;;;;;;;20.06;40.85;93980.75;10518113;28;1979;-70
2024/03/03 03:18:51;;;;;;;;;;;;;;;20.04;40.64;93980.28;10505139;28;2105;-69
2024/03/03 03:23:51;;;;;;;;;;;;;;;20.03;40.87;93986.66;10507123;28;1947;-71
2024/03/03 03:28:51;;;;;;;;;;;;;;;20.02;40.71;93985.09;10513101;28;2084;-70
2024/03/03 03:33:51;;;;;;;;;;;;;;;20.01;40.78;93988.81;10504366;28;2656;-68
2024/03/03 03:38:52;;;;;;;;;;;;;;;19.99;40.69;93988.34;10500073;28;1998;-69
2024/03/03 03:43:53;;;;;;;;;;;;;;;19.98;40.84;93995.47;10509819;28;1910;-69
2024/03/03 03:48:53;;;;;;;;;;;;;;;19.98;40.62;93994.69;10502634;28;2034;-69
2024/03/03 03:53:54;;;;;;;;;;;;;;;19.95;40.49;93985.56;10509268;28;1897;-70
2024/03/03 03:58:54;;;;;;;;;;;;;;;19.95;40.58;94000.56;10510369;28;1993;-69
2024/03/03 04:03:55;;;;;;;;;;;;;;;19.94;40.57;94004.28;10513475;28;2041;-70
2024/03/03 04:08:55;;;;;;;;;;;;;;;19.93;40.93;94002.72;10507004;28;1939;-69
2024/03/03 04:13:56;;;;;;;;;;;;;;;19.91;40.66;94008.31;10506541;28;2205;-69
2024/03/03 04:18:56;;;;;;;;;;;;;;;19.92;40.44;93998.56;10510757;28;2021;-69
2024/03/03 04:23:56;;;;;;;;;;;;;;;19.90;40.72;93998.88;10511573;28;1851;-69
2024/03/03 04:28:57;;;;;;;;;;;;;;;19.89;40.40;93999.16;10515528;28;2647;-69
2024/03/03 04:33:58;;;;;;;;;;;;;;;19.88;40.53;93997.63;10510863;28;2001;-70
2024/03/03 04:38:59;;;;;;;;;;;;;;;19.87;40.60;93993.44;10507629;28;6418;-69
2024/03/03 04:44:00;;;;;;;;;;;;;;;19.86;40.50;93992.69;10507672;28;2101;-69
2024/03/03 04:49:00;;;;;;;;;;;;;;;19.85;40.58;93993.00;10503651;28;2027;-68
2024/03/03 04:54:02;;;;;;;;;;;;;;;19.82;40.72;93988.38;10511145;28;2168;-69
2024/03/03 04:59:02;;;;;;;;;;;;;;;19.83;40.85;93992.53;10501459;28;1981;-68
2024/03/03 05:04:02;;;;;;;;;;;;;;;19.82;40.64;93997.03;10506185;28;1895;-69
2024/03/03 05:09:03;;;;;;;;;;;;;;;19.82;40.77;93994.41;10513418;28;1861;-69
2024/03/03 05:14:03;;;;;;;;;;;;;;;19.84;40.54;93994.09;10517528;28;2044;-69
2024/03/03 05:19:04;;;;;;;;;;;;;;;19.89;40.63;94001.78;10505943;28;1971;-75
2024/03/03 05:24:04;;;;;;;;;;;;;;;19.95;40.22;94003.19;10516151;28;2109;-72
2024/03/03 05:29:05;;;;;;;;;;;;;;;20.02;40.19;94003.50;10510844;28;1978;-72
2024/03/03 05:34:05;;;;;;;;;;;;;;;20.06;39.50;94007.06;10508602;28;2681;-69
2024/03/03 05:39:05;;;;;;;;;;;;;;;20.10;39.74;94002.72;10515966;28;2053;-70
2024/03/03 05:44:07;;;;;;;;;;;;;;;20.17;39.78;94003.03;10510367;28;1971;-68
2024/03/03 05:49:07;;;;;;;;;;;;;;;20.20;39.91;94003.19;10519691;28;1970;-69
2024/03/03 05:54:08;;;;;;;;;;;;;;;20.24;40.17;94017.25;10520570;28;2105;-67
2024/03/03 05:59:09;;;;;;;;;;;;;;;20.27;39.87;94015.88;10505497;28;2128;-68
2024/03/03 06:04:09;;;;;;;;;;;;;;;20.32;40.05;94028.84;10522385;28;1885;-70
2024/03/03 06:09:10;;;;;;;;;;;;;;;20.34;39.66;94018.78;10516228;28;2100;-69
2024/03/03 06:14:14;;;;;;;;;;;;;;;20.38;40.22;94014.44;10516617;28;2375;-69
2024/03/03 06:19:14;;;;;;;;;;;;;;;20.41;40.15;94011.19;10512878;28;2213;-68
2024/03/03 06:24:14;;;;;;;;;;;;;;;20.46;40.05;94021.56;10511219;28;2145;-70
2024/03/03 06:29:15;;;;;;;;;;;;;;;20.47;39.58;94020.47;10513762;28;2188;-69
2024/03/03 06:34:15;;;;;;;;;;;;;;;20.49;39.58;94015.66;10503770;28;1990;-70
2024/03/03 06:39:16;;;;;;;;;;;;;;;20.51;38.93;94026.66;10517676;28;1897;-65
2024/03/03 06:44:16;;;;;;;;;;;;;;;20.53;38.89;94016.59;10509901;28;1958;-72
2024/03/03 06:49:17;;;;;;;;;;;;;;;20.54;39.03;94020.78;10510400;28;1937;-71
2024/03/03 06:54:17;;;;;;;;;;;;;;;20.57;39.20;94025.41;10511294;28;2247;-69
2024/03/03 06:59:17;;;;;;;;;;;;;;;20.58;39.38;94024.31;10509220;28;1985;-70
2024/03/03 07:04:24;;;;;;;;;;;;;;;20.61;39.24;94026.31;10516331;28;2041;-70
2024/03/03 07:09:24;;;;;;;;;;;;;;;20.65;39.28;94026.47;10518529;28;2019;-69
2024/03/03 07:14:25;;;;;;;;;;;;;;;20.66;39.73;94023.53;10512619;28;2659;-71
2024/03/03 07:19:26;;;;;;;;;;;;;;;20.71;39.91;94028.59;10518071;28;1982;-68
2024/03/03 07:24:26;;;;;;;;;;;;;;;20.73;39.07;94029.06;10518744;28;1914;-68
2024/03/03 07:29:29;;;;;;;;;;;;;;;20.76;38.92;94031.06;10516659;28;2089;-66
2024/03/03 07:34:29;;;;;;;;;;;;;;;20.77;39.46;94027.34;10511033;28;1902;-69
2024/03/03 07:39:32;;;;;;;;;;;;;;;20.80;39.65;94018.81;10513888;28;2061;-68
2024/03/03 07:44:32;;;;;;;;;;;;;;;20.84;40.25;94021.59;10516476;28;2062;-75
2024/03/03 07:49:32;;;;;;;;;;;;;;;20.88;39.82;94025.13;10508798;28;2579;-74
2024/03/03 07:54:33;;;;;;;;;;;;;;;20.89;39.59;94027.47;10517861;28;2327;-72
2024/03/03 07:59:33;;;;;;;;;;;;;;;20.90;39.95;94030.84;10513231;28;2081;-71
2024/03/03 08:04:33;;;;;;;;;;;;;;;20.92;39.72;94026.81;10507271;28;2112;-74
2024/03/03 08:09:33;;;;;;;;;;;;;;;20.94;39.50;94031.75;10503060;28;1868;-72
2024/03/03 08:14:34;;;;;;;;;;;;;;;20.92;39.48;94034.72;10500902;28;2076;-73
2024/03/03 08:19:34;;;;;;;;;;;;;;;20.95;40.03;94026.19;10503743;28;2154;-73
2024/03/03 08:24:34;;;;;;;;;;;;;;;20.94;39.97;94027.28;10502106;28;2003;-72
2024/03/03 08:29:34;;;;;;;;;;;;;;;20.95;39.45;94034.09;10502312;28;2068;-73
2024/03/03 08:34:35;;;;;;;;;;;;;;;20.98;39.82;94024.78;10499070;28;2126;-72
2024/03/03 08:39:35;;;;;;;;;;;;;;;21.00;39.76;94026.00;10502346;28;2274;-72
2024/03/03 08:44:35;;;;;;;;;;;;;;;21.00;40.10;94022.59;10513943;28;2077;-72
2024/03/03 08:49:36;;;;;;;;;;;;;;;21.04;39.88;94028.81;10508577;28;1986;-73
2024/03/03 08:54:36;;;;;;;;;;;;;;;21.03;40.12;94020.16;10519398;28;1933;-75
2024/03/03 08:59:36;;;;;;;;;;;;;;;21.05;39.83;94017.97;10518056;28;2030;-72
2024/03/03 09:04:39;;;;;;;;;;;;;;;21.06;39.75;94010.84;10511372;28;2037;-73
2024/03/03 09:09:40;;;;;;;;;;;;;;;21.06;39.78;94008.97;10504773;28;2022;-72
2024/03/03 09:14:41;;;;;;;;;;;;;;;21.08;39.90;94013.16;10521870;28;2026;-73
2024/03/03 09:19:41;;;;;;;;;;;;;;;21.10;39.84;94018.88;10511656;28;2677;-72
2024/03/03 09:24:42;;;;;;;;;;;;;;;21.11;39.92;94015.13;10516089;28;2081;-72
2024/03/03 09:29:42;;;;;;;;;;;;;;;21.10;40.08;94009.13;10515580;28;1929;-74
2024/03/03 09:34:43;;;;;;;;;;;;;;;21.12;40.27;94009.56;10514482;28;2191;-74
2024/03/03 09:39:43;;;;;;;;;;;;;;;21.15;40.50;94010.78;10515564;28;2109;-72
2024/03/03 09:44:44;;;;;;;;;;;;;;;21.13;40.17;94002.41;10515040;28;1932;-73
2024/03/03 09:49:44;;;;;;;;;;;;;;;21.14;40.03;93996.84;10511646;28;1929;-74
2024/03/03 09:54:45;;;;;;;;;;;;;;;21.13;40.07;93997.94;10514810;28;2138;-74
2024/03/03 09:59:45;;;;;;;;;;;;;;;21.16;40.57;93999.94;10512581;28;2128;-71
2024/03/03 10:04:46;;;;;;;;;;;;;;;21.16;40.27;93999.94;10514363;28;2724;-73
2024/03/03 10:09:47;;;;;;;;;;;;;;;21.17;40.33;94004.09;10528173;28;1984;-74
2024/03/03 10:14:47;;;;;;;;;;;;;;;21.18;40.48;94004.88;10506505;28;2115;-72
2024/03/03 10:19:48;;;;;;;;;;;;;;;21.19;40.09;93995.88;10504759;28;2142;-73
2024/03/03 10:24:48;;;;;;;;;;;;;;;21.18;40.54;94010.16;10512087;28;2133;-73
2024/03/03 10:29:48;;;;;;;;;;;;;;;21.18;39.99;94002.25;10506868;28;1951;-73
2024/03/03 10:34:54;;;;;;;;;;;;;;;21.17;39.93;93990.16;10509980;28;1951;-72
2024/03/03 10:39:54;;;;;;;;;;;;;;;21.17;39.92;93985.66;10509411;28;2103;-72
2024/03/03 10:44:54;;;;;;;;;;;;;;;21.19;40.19;93985.34;10516887;28;2405;-72
2024/03/03 10:49:55;;;;;;;;;;;;;;;21.20;40.22;93994.78;10508950;28;1992;-73
2024/03/03 10:54:56;;;;;;;;;;;;;;;21.20;40.71;93986.88;10519709;28;2069;-72
2024/03/03 10:59:56;;;;;;;;;;;;;;;21.21;40.46;93985.78;10517371;28;1978;-72
2024/03/03 11:04:56;;;;;;;;;;;;;;;21.23;39.78;93991.50;10507449;28;1950;-72
2024/03/03 11:09:57;;;;;;;;;;;;;;;21.23;40.49;93983.59;10514369;28;1906;-72
2024/03/03 11:14:57;;;;;;;;;;;;;;;21.23;40.17;93975.69;10507352;28;2018;-71
2024/03/03 11:19:57;;;;;;;;;;;;;;;21.24;40.08;93977.25;10509673;28;2005;-71
2024/03/03 11:24:59;;;;;;;;;;;;;;;21.23;39.79;93975.69;10507914;28;2419;-71
2024/03/03 11:29:59;;;;;;;;;;;;;;;21.25;40.05;93962.97;10511370;27;2005;-72
2024/03/03 11:34:59;;;;;;;;;;;;;;;21.25;39.86;93962.97;10510488;28;2270;-72
2024/03/03 11:40:00;;;;;;;;;;;;;;;21.29;39.77;93953.38;10513007;28;2196;-72
2024/03/03 11:45:01;;;;;;;;;;;;;;;21.32;39.64;93942.94;10517302;28;2319;-71
2024/03/03 11:50:15;;;;;;;;;;;;;;;21.31;39.83;93940.63;10513144;28;1901;-71
2024/03/03 11:55:15;;;;;;;;;;;;;;;21.29;40.81;93933.03;10522828;28;1913;-71
2024/03/03 12:00:17;;;;;;;;;;;;;;;21.28;40.28;93922.81;10507173;28;2097;-71
2024/03/03 12:05:17;;;;;;;;;;;;;;;21.23;40.95;93918.50;10515272;28;2050;-74
2024/03/03 12:10:21;;;;;;;;;;;;;;;21.21;40.91;93915.41;10504016;28;1942;-72
2024/03/03 12:15:21;;;;;;;;;;;;;;;21.18;41.45;93907.41;10503753;28;2622;-72
2024/03/03 12:20:23;;;;;;;;;;;;;;;21.17;41.24;93900.56;10503344;28;2108;-70
2024/03/03 12:25:23;;;;;;;;;;;;;;;21.13;41.60;93903.06;10500193;28;2038;-70
2024/03/03 12:30:36;;;;;;;;;;;;;;;21.12;41.80;93906.03;10509024;28;2029;-71
2024/03/03 12:35:36;;;;;;;;;;;;;;;21.11;41.75;93900.00;10500083;28;2217;-70
2024/03/03 12:40:36;;;;;;;;;;;;;;;21.09;41.71;93896.91;10503997;28;2156;-71
2024/03/03 12:45:37;;;;;;;;;;;;;;;21.10;41.96;93897.69;10508526;28;2097;-71
2024/03/03 12:50:37;;;;;;;;;;;;;;;21.11;42.06;93886.81;10506264;28;1969;-71
2024/03/03 12:55:37;;;;;;;;;;;;;;;21.11;41.92;93888.69;10507492;28;2077;-71
2024/03/03 13:00:37;;;;;;;;;;;;;;;21.10;42.09;93882.66;10504577;28;2651;-71
2024/03/03 13:05:38;;;;;;;;;;;;;;;21.12;42.05;93869.94;10500010;28;1927;-72
2024/03/03 13:10:38;;;;;;;;;;;;;;;21.13;41.91;93874.09;10499549;28;2030;-71
2024/03/03 13:15:38;;;;;;;;;;;;;;;21.15;42.14;93869.28;10507671;28;2452;-70
2024/03/03 13:20:38;;;;;;;;;;;;;;;21.17;41.75;93863.69;10506408;28;2052;-70
2024/03/03 13:25:44;;;;;;;;;;;;;;;21.18;42.12;93857.34;10497360;28;2158;-71
2024/03/03 13:30:55;;;;;;;;;;;;;;;21.19;42.18;93859.63;10511456;28;2058;-71
2024/03/03 13:35:56;;;;;;;;;;;;;;;21.21;42.13;93861.94;10504132;28;2096;-70
2024/03/03 13:40:56;;;;;;;;;;;;;;;21.19;42.34;93864.91;10501663;28;1981;-71
2024/03/03 13:45:59;;;;;;;;;;;;;;;21.21;42.28;93867.22;10500907;28;2116;-70
2024/03/03 13:51:00;;;;;;;;;;;;;;;21.22;42.56;93864.28;10501376;28;1986;-70
2024/03/03 13:56:00;;;;;;;;;;;;;;;21.24;42.12;93863.94;10503319;28;2702;-73
2024/03/03 14:01:00;;;;;;;;;;;;;;;21.24;42.40;93861.31;10517981;28;2013;-71
2024/03/03 14:06:02;;;;;;;;;;;;;;;21.22;42.53;93860.88;10522684;28;2249;-70
2024/03/03 14:11:03;;;;;;;;;;;;;;;21.21;42.40;93862.72;10521510;28;1969;-71
2024/03/03 14:16:03;;;;;;;;;;;;;;;21.21;42.63;93857.44;10522897;28;1966;-70
2024/03/03 14:21:03;;;;;;;;;;;;;;;21.20;42.63;93866.47;10507121;28;2045;-70
2024/03/03 14:26:03;;;;;;;;;;;;;;;21.17;42.56;93863.69;10506747;28;1897;-69
2024/03/03 14:31:04;;;;;;;;;;;;;;;21.14;42.32;93866.97;10513459;28;2069;-69
2024/03/03 14:36:04;;;;;;;;;;;;;;;21.10;42.65;93873.97;10516227;28;2660;-70
2024/03/03 14:41:04;;;;;;;;;;;;;;;21.05;42.56;93883.63;10504090;28;2010;-70
2024/03/03 14:46:05;;;;;;;;;;;;;;;21.04;42.63;93881.31;10512435;28;1900;-69
2024/03/03 14:51:05;;;;;;;;;;;;;;;21.01;42.66;93885.31;10507888;28;2074;-70
2024/03/03 14:56:05;;;;;;;;;;;;;;;21.01;42.51;93893.22;10509850;28;2049;-70
2024/03/03 15:01:06;;;;;;;;;;;;;;;21.01;42.70;93895.84;10516218;28;2046;-69
2024/03/03 15:06:07;;;;;;;;;;;;;;;21.02;42.67;93900.03;10514628;28;1952;-74
2024/03/03 15:11:07;;;;;;;;;;;;;;;21.02;42.50;93894.78;10498999;28;1928;-69
2024/03/03 15:16:07;;;;;;;;;;;;;;;21.03;42.43;93892.91;10510979;28;2536;-69
2024/03/03 15:21:08;;;;;;;;;;;;;;;21.03;42.09;93898.19;10512413;28;2105;-68
2024/03/03 15:26:08;;;;;;;;;;;;;;;21.04;41.95;93887.31;10507313;28;1900;-68
2024/03/03 15:31:08;;;;;;;;;;;;;;;21.04;42.13;93879.44;10503812;28;1981;-67
2024/03/03 15:36:09;;;;;;;;;;;;;;;21.06;41.93;93895.69;10506333;28;2104;-68
2024/03/03 15:41:11;;;;;;;;;;;;;;;21.08;41.62;93902.50;10503080;28;2016;-68
2024/03/03 15:46:12;;;;;;;;;;;;;;;21.06;41.76;93893.03;10511878;28;2145;-68
2024/03/03 15:51:12;;;;;;;;;;;;;;;21.09;41.19;93894.28;10502445;28;2142;-67
2024/03/03 15:56:13;;;;;;;;;;;;;;;21.12;40.68;93903.41;10510854;28;1928;-68
2024/03/03 16:01:13;;;;;;;;;;;;;;;21.11;41.29;93900.00;10511658;28;1928;-68
2024/03/03 16:06:14;;;;;;;;;;;;;;;21.13;41.24;93905.72;10509769;28;1896;-68
2024/03/03 16:11:14;;;;;;;;;;;;;;;21.13;41.33;93902.31;10506590;28;1897;-67
2024/03/03 16:16:14;;;;;;;;;;;;;;;21.14;41.39;93914.41;10501938;28;3155;-68
2024/03/03 16:21:14;;;;;;;;;;;;;;;21.15;40.85;93913.28;10512506;28;2120;-67
2024/03/03 16:26:16;;;;;;;;;;;;;;;21.17;41.01;93921.66;10505279;28;2022;-69
2024/03/03 16:31:17;;;;;;;;;;;;;;;21.16;41.21;93917.47;10502273;28;2088;-68
2024/03/03 16:36:19;;;;;;;;;;;;;;;21.17;41.46;93913.75;10510037;28;2033;-68
2024/03/03 16:41:19;;;;;;;;;;;;;;;21.15;41.81;93921.19;10507492;28;2135;-68
2024/03/03 16:46:20;;;;;;;;;;;;;;;21.16;41.38;93922.75;10506672;28;2064;-67
2024/03/03 16:51:20;;;;;;;;;;;;;;;21.15;41.90;93923.81;10504864;28;2536;-68
2024/03/03 16:56:21;;;;;;;;;;;;;;;21.16;41.42;93930.66;10509667;28;1906;-68
2024/03/03 17:01:21;;;;;;;;;;;;;;;21.16;41.62;93934.06;10503890;28;1893;-68
2024/03/03 17:06:22;;;;;;;;;;;;;;;21.15;41.57;93937.00;10501239;28;2005;-67
2024/03/03 17:11:22;;;;;;;;;;;;;;;21.13;41.60;93945.22;10509857;28;2398;-66
2024/03/03 17:16:23;;;;;;;;;;;;;;;21.14;41.71;93946.78;10509073;28;1990;-70
2024/03/03 17:21:24;;;;;;;;;;;;;;;21.14;41.60;93946.00;10505184;28;1954;-70
2024/03/03 17:26:27;;;;;;;;;;;;;;;21.14;41.47;93952.06;10504533;28;1985;-67
2024/03/03 17:31:27;;;;;;;;;;;;;;;21.15;41.43;93952.81;10500169;28;1986;-68
2024/03/03 17:36:27;;;;;;;;;;;;;;;21.16;41.10;93952.50;10511476;28;2642;-67
2024/03/03 17:41:27;;;;;;;;;;;;;;;21.13;41.38;93965.53;10512894;28;2049;-68
2024/03/03 17:46:28;;;;;;;;;;;;;;;21.16;40.88;93957.78;10512637;28;2164;-69
2024/03/03 17:51:28;;;;;;;;;;;;;;;21.13;41.50;93961.03;10508321;28;2158;-68
2024/03/03 17:56:28;;;;;;;;;;;;;;;21.13;41.56;93970.81;10518414;28;1988;-68
2024/03/03 18:01:28;;;;;;;;;;;;;;;21.12;41.24;93977.19;10522503;28;1917;-68
2024/03/03 18:06:30;;;;;;;;;;;;;;;21.14;40.73;93977.63;10512744;28;1977;-68
2024/03/03 18:11:31;;;;;;;;;;;;;;;21.11;41.35;93975.63;10511728;28;2323;-68
2024/03/03 18:16:32;;;;;;;;;;;;;;;21.10;41.25;93979.34;10514150;28;2545;-68
2024/03/03 18:21:32;;;;;;;;;;;;;;;21.12;41.20;93980.59;10515290;28;2030;-70
2024/03/03 18:26:32;;;;;;;;;;;;;;;21.09;41.18;93981.22;10508684;28;1995;-69
2024/03/03 18:31:33;;;;;;;;;;;;;;;21.10;41.10;93989.91;10505464;28;2018;-67
2024/03/03 18:36:33;;;;;;;;;;;;;;;21.10;41.14;93992.53;10510782;28;2155;-69
2024/03/03 18:41:33;;;;;;;;;;;;;;;21.08;41.04;93989.44;10513420;28;2100;-68
2024/03/03 18:46:33;;;;;;;;;;;;;;;21.09;40.76;93999.66;10515086;28;1991;-68
2024/03/03 18:51:34;;;;;;;;;;;;;;;21.08;41.05;93997.34;10502645;28;2196;-69
2024/03/03 18:56:34;;;;;;;;;;;;;;;21.08;40.82;94001.50;10508731;28;2128;-68
2024/03/03 19:01:35;;;;;;;;;;;;;;;21.06;40.99;94000.31;10512358;28;2498;-68
2024/03/03 19:06:35;;;;;;;;;;;;;;;21.08;40.72;94005.25;10510105;28;1952;-69
2024/03/03 19:11:35;;;;;;;;;;;;;;;21.07;40.48;94015.00;10512852;28;2062;-68
2024/03/03 19:16:36;;;;;;;;;;;;;;;21.04;40.88;94008.50;10516171;28;2053;-68
2024/03/03 19:21:38;;;;;;;;;;;;;;;21.06;40.72;94013.47;10511856;28;2262;-69
2024/03/03 19:26:38;;;;;;;;;;;;;;;21.07;41.05;94020.28;10509973;28;2045;-68
2024/03/03 19:31:38;;;;;;;;;;;;;;;21.06;40.78;94021.38;10511905;28;2037;-68
2024/03/03 19:36:39;;;;;;;;;;;;;;;21.05;40.93;94041.69;10508442;28;2569;-68
2024/03/03 19:41:39;;;;;;;;;;;;;;;21.04;40.83;94034.84;10511424;28;2041;-68
2024/03/03 19:46:40;;;;;;;;;;;;;;;21.04;40.70;94045.38;10500157;28;1974;-68
2024/03/03 19:51:41;;;;;;;;;;;;;;;21.02;40.94;94042.28;10509143;28;2053;-67
2024/03/03 19:56:41;;;;;;;;;;;;;;;21.05;40.36;94046.94;10507889;28;2018;-69
2024/03/03 20:01:41;;;;;;;;;;;;;;;21.05;40.58;94044.31;10503508;28;2085;-69
2024/03/03 20:06:42;;;;;;;;;;;;;;;21.04;40.91;94052.53;10491547;28;2108;-70
2024/03/03 20:11:43;;;;;;;;;;;;;;;21.05;40.57;94054.84;10509096;28;2097;-68
2024/03/03 20:16:47;;;;;;;;;;;;;;;21.06;40.38;94060.91;10512820;28;1977;-69
2024/03/03 20:21:48;;;;;;;;;;;;;;;21.04;40.65;94063.06;10503852;28;2770;-69
2024/03/03 20:26:48;;;;;;;;;;;;;;;21.04;40.60;94073.63;10504874;28;1935;-68
2024/03/03 20:31:48;;;;;;;;;;;;;;;21.03;40.45;94078.09;10501103;28;2228;-67
2024/03/03 20:36:49;;;;;;;;;;;;;;;21.05;40.23;94081.19;10503191;28;2041;-67
2024/03/03 20:41:51;;;;;;;;;;;;;;;21.02;40.47;94081.81;10493031;28;2069;-68
2024/03/03 20:46:52;;;;;;;;;;;;;;;21.00;40.69;94089.22;10507889;28;2009;-68
2024/03/03 20:51:52;;;;;;;;;;;;;;;21.00;40.88;94094.50;10494414;28;2147;-69
2024/03/03 20:56:53;;;;;;;;;;;;;;;20.97;40.60;94105.69;10502730;28;1915;-66
2024/03/03 21:01:53;;;;;;;;;;;;;;;20.97;40.80;94105.69;10507094;28;1940;-67
2024/03/03 21:06:53;;;;;;;;;;;;;;;20.96;40.32;94108.59;10499118;28;1984;-65
2024/03/03 21:11:54;;;;;;;;;;;;;;;20.93;40.64;94111.88;10507297;28;1977;-65
2024/03/03 21:16:54;;;;;;;;;;;;;;;20.91;41.19;94117.47;10466573;28;1119785;-66
2024/03/03 21:21:54;;;;;;;;;;;;;;;20.90;41.11;94126.44;10497795;28;1956;-64
2024/03/03 21:26:54;;;;;;;;;;;;;;;20.88;41.32;94139.16;10508273;28;2053;-64
2024/03/03 21:31:55;;;;;;;;;;;;;;;20.86;41.16;94135.28;10506816;28;2042;-65
2024/03/03 21:36:56;;;;;;;;;;;;;;;20.84;41.25;94140.09;10501331;28;2041;-65
2024/03/03 21:41:56;;;;;;;;;;;;;;;20.82;42.02;94134.38;10507126;28;2364;-67
2024/03/03 21:46:56;;;;;;;;;;;;;;;20.84;42.81;94142.72;10501676;28;2034;-69
2024/03/03 21:51:56;;;;;;;;;;;;;;;20.84;43.29;94142.72;10498703;28;2211;-68
2024/03/03 21:56:57;;;;;;;;;;;;;;;20.84;43.42;94145.34;10505900;28;2096;-69
2024/03/03 22:01:57;;;;;;;;;;;;;;;20.83;43.65;94139.34;10504888;28;2058;-68
2024/03/03 22:06:57;;;;;;;;;;;;;;;20.80;43.87;94142.59;10500302;28;1994;-70
2024/03/03 22:11:58;;;;;;;;;;;;;;;20.79;43.94;94156.81;10514860;28;2505;-68
2024/03/03 22:16:58;;;;;;;;;;;;;;;20.77;44.03;94159.00;10504869;28;2111;-68
2024/03/03 22:21:58;;;;;;;;;;;;;;;20.76;43.82;94160.09;10506980;28;1984;-68
2024/03/03 22:26:58;;;;;;;;;;;;;;;20.73;43.99;94158.06;10507296;28;2191;-68
2024/03/03 22:31:59;;;;;;;;;;;;;;;20.72;44.06;94163.66;10509478;28;2111;-68
2024/03/03 22:36:59;;;;;;;;;;;;;;;20.70;43.74;94157.94;10518781;28;1985;-68
2024/03/03 22:42:04;;;;;;;;;;;;;;;20.66;44.05;94173.59;10510603;28;2150;-70
2024/03/03 22:47:04;;;;;;;;;;;;;;;20.65;43.67;94173.91;10511929;28;2037;-68
2024/03/03 22:52:04;;;;;;;;;;;;;;;20.61;43.81;94176.38;10510563;28;2029;-68
2024/03/03 22:57:04;;;;;;;;;;;;;;;20.61;43.70;94186.91;10513668;28;1996;-68
2024/03/03 23:02:05;;;;;;;;;;;;;;;20.58;43.82;94190.16;10513062;28;2045;-68
2024/03/03 23:07:05;;;;;;;;;;;;;;;20.56;43.44;94189.69;10510895;28;1881;-68
2024/03/03 23:12:06;;;;;;;;;;;;;;;20.55;43.68;94201.31;10510337;28;1990;-68
2024/03/03 23:17:06;;;;;;;;;;;;;;;20.52;43.84;94201.94;10512250;28;2802;-68
2024/03/03 23:22:06;;;;;;;;;;;;;;;20.51;43.47;94200.38;10513842;28;2343;-68
2024/03/03 23:27:06;;;;;;;;;;;;;;;20.49;43.74;94215.69;10512145;28;1994;-68
2024/03/03 23:32:07;;;;;;;;;;;;;;;20.48;43.83;94218.66;10519797;28;2075;-68
2024/03/03 23:37:10;;;;;;;;;;;;;;;20.47;43.58;94223.13;10514083;28;2025;-68
2024/03/03 23:42:10;;;;;;;;;;;;;;;20.43;43.81;94210.91;10510738;28;2076;-68
2024/03/03 23:47:10;;;;;;;;;;;;;;;20.43;43.80;94232.72;10509428;28;2187;-68
2024/03/03 23:52:11;;;;;;;;;;;;;;;20.43;43.54;94234.59;10511789;28;1958;-68
2024/03/03 23:57:11;;;;;;;;;;;;;;;20.40;43.64;94246.53;10507472;28;2001;-68
